sensor_id;sensor_type;location;lat;lon;timestamp;P1;durP1;ratioP1;P2;durP2;ratioP2
61344;SDS011;47216;42.656;23.232;2022-10-19T00:01:50;4.43;;;2.30;;
61344;SDS011;47216;42.656;23.232;2022-10-19T00:04:17;6.33;;;2.97;;
61344;SDS011;47216;42.656;23.232;2022-10-19T00:06:43;6.07;;;2.40;;
61344;SDS011;47216;42.656;23.232;2022-10-19T00:09:12;4.13;;;2.40;;
61344;SDS011;47216;42.656;23.232;2022-10-19T00:11:41;7.17;;;2.63;;
61344;SDS011;47216;42.656;23.232;2022-10-19T00:14:10;4.37;;;2.27;;
61344;SDS011;47216;42.656;23.232;2022-10-19T00:16:40;3.87;;;2.20;;
61344;SDS011;47216;42.656;23.232;2022-10-19T00:19:10;4.83;;;2.50;;
61344;SDS011;47216;42.656;23.232;2022-10-19T00:21:38;3.03;;;2.20;;
61344;SDS011;47216;42.656;23.232;2022-10-19T00:24:05;4.70;;;2.70;;
61344;SDS011;47216;42.656;23.232;2022-10-19T00:26:33;4.17;;;1.80;;
61344;SDS011;47216;42.656;23.232;2022-10-19T00:29:00;6.10;;;2.13;;
61344;SDS011;47216;42.656;23.232;2022-10-19T00:31:27;6.17;;;2.00;;
61344;SDS011;47216;42.656;23.232;2022-10-19T00:33:56;7.23;;;2.50;;
61344;SDS011;47216;42.656;23.232;2022-10-19T00:36:24;3.77;;;1.87;;
61344;SDS011;47216;42.656;23.232;2022-10-19T00:38:52;4.13;;;1.90;;
61344;SDS011;47216;42.656;23.232;2022-10-19T00:41:21;2.10;;;1.77;;
61344;SDS011;47216;42.656;23.232;2022-10-19T00:43:55;3.53;;;2.03;;
61344;SDS011;47216;42.656;23.232;2022-10-19T00:46:23;6.17;;;2.87;;
61344;SDS011;47216;42.656;23.232;2022-10-19T00:48:51;6.67;;;3.40;;
61344;SDS011;47216;42.656;23.232;2022-10-19T00:51:24;7.97;;;2.80;;
61344;SDS011;47216;42.656;23.232;2022-10-19T00:53:53;7.37;;;2.80;;
61344;SDS011;47216;42.656;23.232;2022-10-19T00:56:20;4.63;;;2.30;;
61344;SDS011;47216;42.656;23.232;2022-10-19T00:58:49;3.03;;;1.73;;
61344;SDS011;47216;42.656;23.232;2022-10-19T01:01:17;4.53;;;2.50;;
61344;SDS011;47216;42.656;23.232;2022-10-19T01:03:47;3.43;;;2.27;;
61344;SDS011;47216;42.656;23.232;2022-10-19T01:06:14;4.40;;;2.53;;
61344;SDS011;47216;42.656;23.232;2022-10-19T01:08:44;6.40;;;3.70;;
61344;SDS011;47216;42.656;23.232;2022-10-19T01:11:14;6.93;;;4.43;;
61344;SDS011;47216;42.656;23.232;2022-10-19T01:13:52;5.97;;;3.27;;
61344;SDS011;47216;42.656;23.232;2022-10-19T01:16:29;12.83;;;3.70;;
61344;SDS011;47216;42.656;23.232;2022-10-19T01:19:07;6.60;;;3.57;;
61344;SDS011;47216;42.656;23.232;2022-10-19T01:21:54;5.33;;;2.77;;
61344;SDS011;47216;42.656;23.232;2022-10-19T01:24:36;5.07;;;3.20;;
61344;SDS011;47216;42.656;23.232;2022-10-19T01:30:28;4.40;;;2.87;;
61344;SDS011;47216;42.656;23.232;2022-10-19T01:33:06;4.30;;;3.07;;
61344;SDS011;47216;42.656;23.232;2022-10-19T01:35:41;7.67;;;3.20;;
61344;SDS011;47216;42.656;23.232;2022-10-19T01:38:16;5.10;;;3.17;;
61344;SDS011;47216;42.656;23.232;2022-10-19T01:40:53;6.23;;;2.80;;
61344;SDS011;47216;42.656;23.232;2022-10-19T01:43:24;5.97;;;3.07;;
61344;SDS011;47216;42.656;23.232;2022-10-19T01:46:01;7.13;;;2.93;;
61344;SDS011;47216;42.656;23.232;2022-10-19T01:48:34;4.20;;;2.40;;
61344;SDS011;47216;42.656;23.232;2022-10-19T01:51:05;5.30;;;2.47;;
61344;SDS011;47216;42.656;23.232;2022-10-19T01:53:38;4.37;;;2.57;;
61344;SDS011;47216;42.656;23.232;2022-10-19T01:56:08;4.07;;;2.63;;
61344;SDS011;47216;42.656;23.232;2022-10-19T01:58:38;3.83;;;2.83;;
61344;SDS011;47216;42.656;23.232;2022-10-19T02:01:09;6.03;;;3.10;;
61344;SDS011;47216;42.656;23.232;2022-10-19T02:03:38;7.73;;;3.10;;
61344;SDS011;47216;42.656;23.232;2022-10-19T02:06:06;6.07;;;2.97;;
61344;SDS011;47216;42.656;23.232;2022-10-19T02:08:36;4.23;;;2.90;;
61344;SDS011;47216;42.656;23.232;2022-10-19T02:11:05;7.17;;;3.20;;
61344;SDS011;47216;42.656;23.232;2022-10-19T02:13:33;4.90;;;2.83;;
61344;SDS011;47216;42.656;23.232;2022-10-19T02:16:02;3.30;;;2.17;;
61344;SDS011;47216;42.656;23.232;2022-10-19T02:18:35;3.17;;;2.57;;
61344;SDS011;47216;42.656;23.232;2022-10-19T02:21:06;3.97;;;2.70;;
61344;SDS011;47216;42.656;23.232;2022-10-19T02:23:33;5.17;;;2.93;;
61344;SDS011;47216;42.656;23.232;2022-10-19T02:26:00;5.87;;;2.63;;
61344;SDS011;47216;42.656;23.232;2022-10-19T02:28:27;4.70;;;2.63;;
61344;SDS011;47216;42.656;23.232;2022-10-19T02:30:55;5.87;;;2.60;;
61344;SDS011;47216;42.656;23.232;2022-10-19T02:33:23;4.70;;;2.50;;
61344;SDS011;47216;42.656;23.232;2022-10-19T02:35:52;3.77;;;2.30;;
61344;SDS011;47216;42.656;23.232;2022-10-19T02:38:20;8.53;;;2.43;;
61344;SDS011;47216;42.656;23.232;2022-10-19T02:40:52;5.00;;;2.37;;
61344;SDS011;47216;42.656;23.232;2022-10-19T02:43:25;2.07;;;1.87;;
61344;SDS011;47216;42.656;23.232;2022-10-19T02:45:55;5.90;;;1.90;;
61344;SDS011;47216;42.656;23.232;2022-10-19T02:48:28;4.10;;;2.10;;
61344;SDS011;47216;42.656;23.232;2022-10-19T02:50:58;3.27;;;2.23;;
61344;SDS011;47216;42.656;23.232;2022-10-19T02:53:25;5.67;;;2.70;;
61344;SDS011;47216;42.656;23.232;2022-10-19T02:55:52;5.93;;;3.03;;
61344;SDS011;47216;42.656;23.232;2022-10-19T02:58:18;4.97;;;3.10;;
61344;SDS011;47216;42.656;23.232;2022-10-19T03:00:45;6.80;;;3.07;;
61344;SDS011;47216;42.656;23.232;2022-10-19T03:03:12;4.10;;;2.73;;
61344;SDS011;47216;42.656;23.232;2022-10-19T03:05:39;4.20;;;2.67;;
61344;SDS011;47216;42.656;23.232;2022-10-19T03:08:07;6.27;;;2.67;;
61344;SDS011;47216;42.656;23.232;2022-10-19T03:10:34;2.80;;;2.00;;
61344;SDS011;47216;42.656;23.232;2022-10-19T03:13:00;2.47;;;2.00;;
61344;SDS011;47216;42.656;23.232;2022-10-19T03:15:27;4.50;;;2.20;;
61344;SDS011;47216;42.656;23.232;2022-10-19T03:17:54;4.43;;;2.40;;
61344;SDS011;47216;42.656;23.232;2022-10-19T03:20:21;5.20;;;2.80;;
61344;SDS011;47216;42.656;23.232;2022-10-19T03:22:48;3.73;;;2.50;;
61344;SDS011;47216;42.656;23.232;2022-10-19T03:25:17;4.13;;;3.03;;
61344;SDS011;47216;42.656;23.232;2022-10-19T03:27:44;5.90;;;2.57;;
61344;SDS011;47216;42.656;23.232;2022-10-19T03:30:10;3.77;;;2.50;;
61344;SDS011;47216;42.656;23.232;2022-10-19T03:32:37;3.87;;;2.50;;
61344;SDS011;47216;42.656;23.232;2022-10-19T03:35:04;3.33;;;2.20;;
61344;SDS011;47216;42.656;23.232;2022-10-19T03:37:32;5.93;;;2.57;;
61344;SDS011;47216;42.656;23.232;2022-10-19T03:39:59;4.33;;;2.60;;
61344;SDS011;47216;42.656;23.232;2022-10-19T03:42:27;4.33;;;2.10;;
61344;SDS011;47216;42.656;23.232;2022-10-19T03:44:54;5.63;;;2.73;;
61344;SDS011;47216;42.656;23.232;2022-10-19T03:47:21;3.90;;;2.00;;
61344;SDS011;47216;42.656;23.232;2022-10-19T03:49:48;5.47;;;2.50;;
61344;SDS011;47216;42.656;23.232;2022-10-19T03:52:15;4.40;;;2.23;;
61344;SDS011;47216;42.656;23.232;2022-10-19T03:54:42;3.03;;;1.90;;
61344;SDS011;47216;42.656;23.232;2022-10-19T03:57:09;5.10;;;3.10;;
61344;SDS011;47216;42.656;23.232;2022-10-19T03:59:38;6.33;;;2.93;;
61344;SDS011;47216;42.656;23.232;2022-10-19T04:02:05;6.00;;;2.73;;
61344;SDS011;47216;42.656;23.232;2022-10-19T04:04:32;4.33;;;2.30;;
61344;SDS011;47216;42.656;23.232;2022-10-19T04:06:59;4.67;;;2.57;;
61344;SDS011;47216;42.656;23.232;2022-10-19T04:09:26;4.27;;;2.63;;
61344;SDS011;47216;42.656;23.232;2022-10-19T04:11:52;6.73;;;2.67;;
61344;SDS011;47216;42.656;23.232;2022-10-19T04:14:20;8.20;;;3.00;;
61344;SDS011;47216;42.656;23.232;2022-10-19T04:16:48;5.10;;;2.70;;
61344;SDS011;47216;42.656;23.232;2022-10-19T04:19:15;4.20;;;2.50;;
61344;SDS011;47216;42.656;23.232;2022-10-19T04:21:42;8.83;;;2.80;;
61344;SDS011;47216;42.656;23.232;2022-10-19T04:24:10;3.37;;;2.43;;
61344;SDS011;47216;42.656;23.232;2022-10-19T04:26:39;6.63;;;2.80;;
61344;SDS011;47216;42.656;23.232;2022-10-19T04:29:08;3.53;;;2.00;;
61344;SDS011;47216;42.656;23.232;2022-10-19T04:31:35;5.77;;;2.40;;
61344;SDS011;47216;42.656;23.232;2022-10-19T04:34:04;3.97;;;2.03;;
61344;SDS011;47216;42.656;23.232;2022-10-19T04:36:32;3.70;;;1.97;;
61344;SDS011;47216;42.656;23.232;2022-10-19T04:38:59;3.73;;;2.03;;
61344;SDS011;47216;42.656;23.232;2022-10-19T04:41:26;3.20;;;2.47;;
61344;SDS011;47216;42.656;23.232;2022-10-19T04:43:56;4.67;;;2.50;;
61344;SDS011;47216;42.656;23.232;2022-10-19T04:46:25;4.40;;;2.73;;
61344;SDS011;47216;42.656;23.232;2022-10-19T04:48:52;5.80;;;2.43;;
61344;SDS011;47216;42.656;23.232;2022-10-19T04:51:22;4.40;;;2.47;;
61344;SDS011;47216;42.656;23.232;2022-10-19T04:53:50;6.40;;;2.40;;
61344;SDS011;47216;42.656;23.232;2022-10-19T04:56:18;7.53;;;2.70;;
61344;SDS011;47216;42.656;23.232;2022-10-19T04:58:46;3.70;;;2.70;;
61344;SDS011;47216;42.656;23.232;2022-10-19T05:01:13;11.83;;;2.73;;
61344;SDS011;47216;42.656;23.232;2022-10-19T05:03:41;3.93;;;2.60;;
61344;SDS011;47216;42.656;23.232;2022-10-19T05:06:09;9.43;;;2.57;;
61344;SDS011;47216;42.656;23.232;2022-10-19T05:08:38;10.73;;;2.60;;
61344;SDS011;47216;42.656;23.232;2022-10-19T05:11:06;8.13;;;2.53;;
61344;SDS011;47216;42.656;23.232;2022-10-19T05:13:34;3.37;;;2.40;;
61344;SDS011;47216;42.656;23.232;2022-10-19T05:16:02;5.90;;;2.90;;
61344;SDS011;47216;42.656;23.232;2022-10-19T05:18:31;6.47;;;2.87;;
61344;SDS011;47216;42.656;23.232;2022-10-19T05:21:01;6.03;;;3.20;;
61344;SDS011;47216;42.656;23.232;2022-10-19T05:23:29;4.70;;;2.87;;
61344;SDS011;47216;42.656;23.232;2022-10-19T05:26:01;5.47;;;2.60;;
61344;SDS011;47216;42.656;23.232;2022-10-19T05:28:29;3.07;;;2.47;;
61344;SDS011;47216;42.656;23.232;2022-10-19T05:31:03;6.77;;;2.73;;
61344;SDS011;47216;42.656;23.232;2022-10-19T05:33:30;4.13;;;2.40;;
61344;SDS011;47216;42.656;23.232;2022-10-19T05:35:57;3.50;;;2.47;;
61344;SDS011;47216;42.656;23.232;2022-10-19T05:38:24;5.37;;;2.90;;
61344;SDS011;47216;42.656;23.232;2022-10-19T05:40:51;7.67;;;2.60;;
61344;SDS011;47216;42.656;23.232;2022-10-19T05:43:19;11.70;;;3.73;;
61344;SDS011;47216;42.656;23.232;2022-10-19T05:45:46;8.07;;;3.50;;
61344;SDS011;47216;42.656;23.232;2022-10-19T05:48:12;10.53;;;3.97;;
61344;SDS011;47216;42.656;23.232;2022-10-19T05:50:39;19.93;;;4.07;;
61344;SDS011;47216;42.656;23.232;2022-10-19T05:53:06;10.50;;;3.90;;
61344;SDS011;47216;42.656;23.232;2022-10-19T05:55:33;11.90;;;3.50;;
61344;SDS011;47216;42.656;23.232;2022-10-19T05:58:00;11.60;;;3.83;;
61344;SDS011;47216;42.656;23.232;2022-10-19T06:00:28;15.10;;;4.30;;
61344;SDS011;47216;42.656;23.232;2022-10-19T06:02:55;9.43;;;5.17;;
61344;SDS011;47216;42.656;23.232;2022-10-19T06:05:22;7.10;;;4.10;;
61344;SDS011;47216;42.656;23.232;2022-10-19T06:07:49;7.63;;;3.97;;
61344;SDS011;47216;42.656;23.232;2022-10-19T06:10:15;7.50;;;3.73;;
61344;SDS011;47216;42.656;23.232;2022-10-19T06:12:43;7.80;;;4.03;;
61344;SDS011;47216;42.656;23.232;2022-10-19T06:15:10;5.90;;;2.97;;
61344;SDS011;47216;42.656;23.232;2022-10-19T06:17:38;6.23;;;3.50;;
61344;SDS011;47216;42.656;23.232;2022-10-19T06:20:07;5.13;;;2.93;;
61344;SDS011;47216;42.656;23.232;2022-10-19T06:22:35;10.57;;;3.17;;
61344;SDS011;47216;42.656;23.232;2022-10-19T06:25:01;5.40;;;2.93;;
61344;SDS011;47216;42.656;23.232;2022-10-19T06:27:30;5.27;;;3.03;;
61344;SDS011;47216;42.656;23.232;2022-10-19T06:29:57;5.07;;;3.03;;
61344;SDS011;47216;42.656;23.232;2022-10-19T06:32:23;6.17;;;3.00;;
61344;SDS011;47216;42.656;23.232;2022-10-19T06:34:53;8.37;;;3.20;;
61344;SDS011;47216;42.656;23.232;2022-10-19T06:37:20;10.40;;;3.50;;
61344;SDS011;47216;42.656;23.232;2022-10-19T06:39:47;7.03;;;3.00;;
61344;SDS011;47216;42.656;23.232;2022-10-19T06:42:14;5.27;;;3.00;;
61344;SDS011;47216;42.656;23.232;2022-10-19T06:44:40;4.70;;;2.77;;
61344;SDS011;47216;42.656;23.232;2022-10-19T06:47:07;9.17;;;4.00;;
61344;SDS011;47216;42.656;23.232;2022-10-19T06:49:34;12.43;;;4.53;;
61344;SDS011;47216;42.656;23.232;2022-10-19T06:52:02;10.43;;;5.40;;
61344;SDS011;47216;42.656;23.232;2022-10-19T06:56:58;11.90;;;5.10;;
61344;SDS011;47216;42.656;23.232;2022-10-19T06:59:25;10.17;;;5.60;;
61344;SDS011;47216;42.656;23.232;2022-10-19T07:01:51;10.50;;;5.50;;
61344;SDS011;47216;42.656;23.232;2022-10-19T07:04:18;10.17;;;5.63;;
61344;SDS011;47216;42.656;23.232;2022-10-19T07:06:45;11.33;;;5.27;;
61344;SDS011;47216;42.656;23.232;2022-10-19T07:09:13;12.73;;;5.53;;
61344;SDS011;47216;42.656;23.232;2022-10-19T07:11:40;9.70;;;5.70;;
61344;SDS011;47216;42.656;23.232;2022-10-19T07:14:07;20.13;;;6.17;;
61344;SDS011;47216;42.656;23.232;2022-10-19T07:16:34;10.33;;;5.60;;
61344;SDS011;47216;42.656;23.232;2022-10-19T07:19:01;14.00;;;5.50;;
61344;SDS011;47216;42.656;23.232;2022-10-19T07:21:27;10.37;;;4.93;;
61344;SDS011;47216;42.656;23.232;2022-10-19T07:23:54;13.53;;;5.90;;
61344;SDS011;47216;42.656;23.232;2022-10-19T07:26:23;11.83;;;5.60;;
61344;SDS011;47216;42.656;23.232;2022-10-19T07:28:54;14.83;;;5.80;;
61344;SDS011;47216;42.656;23.232;2022-10-19T07:31:22;16.77;;;5.93;;
61344;SDS011;47216;42.656;23.232;2022-10-19T07:33:50;10.97;;;6.33;;
61344;SDS011;47216;42.656;23.232;2022-10-19T07:36:17;19.53;;;6.80;;
61344;SDS011;47216;42.656;23.232;2022-10-19T07:38:45;14.80;;;7.93;;
61344;SDS011;47216;42.656;23.232;2022-10-19T07:41:12;16.83;;;8.07;;
61344;SDS011;47216;42.656;23.232;2022-10-19T07:43:42;12.90;;;8.80;;
61344;SDS011;47216;42.656;23.232;2022-10-19T07:46:10;19.83;;;8.70;;
61344;SDS011;47216;42.656;23.232;2022-10-19T07:48:38;20.67;;;8.70;;
61344;SDS011;47216;42.656;23.232;2022-10-19T07:51:06;17.23;;;7.87;;
61344;SDS011;47216;42.656;23.232;2022-10-19T07:53:34;21.50;;;9.20;;
61344;SDS011;47216;42.656;23.232;2022-10-19T07:56:02;11.30;;;7.80;;
61344;SDS011;47216;42.656;23.232;2022-10-19T07:58:29;16.53;;;7.13;;
61344;SDS011;47216;42.656;23.232;2022-10-19T08:00:59;20.63;;;8.13;;
61344;SDS011;47216;42.656;23.232;2022-10-19T08:03:26;19.13;;;8.40;;
61344;SDS011;47216;42.656;23.232;2022-10-19T08:05:53;18.80;;;7.60;;
61344;SDS011;47216;42.656;23.232;2022-10-19T08:08:25;16.53;;;8.90;;
61344;SDS011;47216;42.656;23.232;2022-10-19T08:10:52;18.60;;;8.93;;
61344;SDS011;47216;42.656;23.232;2022-10-19T08:13:19;22.07;;;8.83;;
61344;SDS011;47216;42.656;23.232;2022-10-19T08:15:45;17.37;;;7.77;;
61344;SDS011;47216;42.656;23.232;2022-10-19T08:18:14;15.50;;;6.67;;
61344;SDS011;47216;42.656;23.232;2022-10-19T08:20:42;14.17;;;5.07;;
61344;SDS011;47216;42.656;23.232;2022-10-19T08:23:09;15.20;;;6.23;;
61344;SDS011;47216;42.656;23.232;2022-10-19T08:25:36;7.50;;;3.70;;
61344;SDS011;47216;42.656;23.232;2022-10-19T08:28:03;6.47;;;2.83;;
61344;SDS011;47216;42.656;23.232;2022-10-19T08:30:30;8.13;;;2.90;;
61344;SDS011;47216;42.656;23.232;2022-10-19T08:32:59;3.50;;;2.50;;
61344;SDS011;47216;42.656;23.232;2022-10-19T08:35:28;3.20;;;2.10;;
61344;SDS011;47216;42.656;23.232;2022-10-19T08:37:55;8.63;;;2.37;;
61344;SDS011;47216;42.656;23.232;2022-10-19T08:40:24;9.40;;;3.90;;
61344;SDS011;47216;42.656;23.232;2022-10-19T08:42:55;24.67;;;3.00;;
61344;SDS011;47216;42.656;23.232;2022-10-19T08:45:34;9.93;;;2.47;;
61344;SDS011;47216;42.656;23.232;2022-10-19T08:50:56;3.60;;;2.30;;
61344;SDS011;47216;42.656;23.232;2022-10-19T08:53:27;7.77;;;2.67;;
61344;SDS011;47216;42.656;23.232;2022-10-19T08:56:09;6.03;;;2.57;;
61344;SDS011;47216;42.656;23.232;2022-10-19T08:58:52;4.80;;;2.80;;
61344;SDS011;47216;42.656;23.232;2022-10-19T09:01:36;4.87;;;2.60;;
61344;SDS011;47216;42.656;23.232;2022-10-19T09:04:08;7.60;;;2.97;;
61344;SDS011;47216;42.656;23.232;2022-10-19T09:06:44;4.77;;;2.93;;
61344;SDS011;47216;42.656;23.232;2022-10-19T09:09:17;9.33;;;3.00;;
61344;SDS011;47216;42.656;23.232;2022-10-19T09:11:46;3.53;;;2.30;;
61344;SDS011;47216;42.656;23.232;2022-10-19T09:14:17;4.90;;;2.50;;
61344;SDS011;47216;42.656;23.232;2022-10-19T09:16:48;5.83;;;2.73;;
61344;SDS011;47216;42.656;23.232;2022-10-19T09:19:17;5.87;;;2.10;;
61344;SDS011;47216;42.656;23.232;2022-10-19T09:21:52;3.90;;;2.37;;
61344;SDS011;47216;42.656;23.232;2022-10-19T09:24:29;4.27;;;2.10;;
61344;SDS011;47216;42.656;23.232;2022-10-19T09:27:03;2.90;;;1.90;;
61344;SDS011;47216;42.656;23.232;2022-10-19T09:29:39;3.37;;;2.33;;
61344;SDS011;47216;42.656;23.232;2022-10-19T09:32:10;3.90;;;2.50;;
61344;SDS011;47216;42.656;23.232;2022-10-19T09:34:40;4.10;;;2.93;;
61344;SDS011;47216;42.656;23.232;2022-10-19T09:37:11;3.63;;;1.80;;
61344;SDS011;47216;42.656;23.232;2022-10-19T09:39:38;3.90;;;2.33;;
61344;SDS011;47216;42.656;23.232;2022-10-19T09:42:07;4.60;;;2.20;;
61344;SDS011;47216;42.656;23.232;2022-10-19T09:44:38;6.73;;;2.50;;
61344;SDS011;47216;42.656;23.232;2022-10-19T09:47:11;3.37;;;2.07;;
61344;SDS011;47216;42.656;23.232;2022-10-19T09:49:52;10.63;;;2.23;;
61344;SDS011;47216;42.656;23.232;2022-10-19T09:52:35;2.90;;;2.27;;
61344;SDS011;47216;42.656;23.232;2022-10-19T09:55:05;7.67;;;4.37;;
61344;SDS011;47216;42.656;23.232;2022-10-19T09:57:42;3.33;;;1.90;;
61344;SDS011;47216;42.656;23.232;2022-10-19T10:00:16;3.00;;;2.23;;
61344;SDS011;47216;42.656;23.232;2022-10-19T10:02:47;3.77;;;2.20;;
61344;SDS011;47216;42.656;23.232;2022-10-19T10:05:15;3.87;;;2.00;;
61344;SDS011;47216;42.656;23.232;2022-10-19T10:07:44;2.73;;;2.17;;
61344;SDS011;47216;42.656;23.232;2022-10-19T10:10:18;3.97;;;2.60;;
61344;SDS011;47216;42.656;23.232;2022-10-19T10:12:46;2.60;;;1.90;;
61344;SDS011;47216;42.656;23.232;2022-10-19T10:15:15;3.53;;;2.50;;
61344;SDS011;47216;42.656;23.232;2022-10-19T10:17:44;4.83;;;2.27;;
61344;SDS011;47216;42.656;23.232;2022-10-19T10:20:18;3.37;;;2.30;;
61344;SDS011;47216;42.656;23.232;2022-10-19T10:22:54;11.97;;;2.73;;
61344;SDS011;47216;42.656;23.232;2022-10-19T10:25:24;5.27;;;2.27;;
61344;SDS011;47216;42.656;23.232;2022-10-19T10:27:55;4.47;;;2.27;;
61344;SDS011;47216;42.656;23.232;2022-10-19T10:30:23;6.33;;;3.23;;
61344;SDS011;47216;42.656;23.232;2022-10-19T10:32:54;4.43;;;2.10;;
61344;SDS011;47216;42.656;23.232;2022-10-19T10:35:22;3.10;;;1.97;;
61344;SDS011;47216;42.656;23.232;2022-10-19T10:37:54;3.50;;;1.90;;
61344;SDS011;47216;42.656;23.232;2022-10-19T10:40:34;4.10;;;2.10;;
61344;SDS011;47216;42.656;23.232;2022-10-19T10:43:02;4.60;;;1.90;;
61344;SDS011;47216;42.656;23.232;2022-10-19T10:45:31;4.23;;;2.03;;
61344;SDS011;47216;42.656;23.232;2022-10-19T10:48:09;2.90;;;1.90;;
61344;SDS011;47216;42.656;23.232;2022-10-19T10:50:44;7.43;;;2.07;;
61344;SDS011;47216;42.656;23.232;2022-10-19T10:56:03;7.40;;;2.20;;
61344;SDS011;47216;42.656;23.232;2022-10-19T10:58:35;3.43;;;2.03;;
61344;SDS011;47216;42.656;23.232;2022-10-19T11:01:11;5.77;;;2.17;;
61344;SDS011;47216;42.656;23.232;2022-10-19T11:03:46;4.73;;;2.17;;
61344;SDS011;47216;42.656;23.232;2022-10-19T11:06:17;6.90;;;2.87;;
61344;SDS011;47216;42.656;23.232;2022-10-19T11:08:50;2.90;;;1.83;;
61344;SDS011;47216;42.656;23.232;2022-10-19T11:11:25;4.97;;;2.00;;
61344;SDS011;47216;42.656;23.232;2022-10-19T11:13:55;2.67;;;1.77;;
61344;SDS011;47216;42.656;23.232;2022-10-19T11:16:26;3.20;;;2.10;;
61344;SDS011;47216;42.656;23.232;2022-10-19T11:18:57;11.07;;;1.83;;
61344;SDS011;47216;42.656;23.232;2022-10-19T11:21:33;2.70;;;1.97;;
61344;SDS011;47216;42.656;23.232;2022-10-19T11:24:09;2.93;;;1.70;;
61344;SDS011;47216;42.656;23.232;2022-10-19T11:26:45;3.70;;;1.70;;
61344;SDS011;47216;42.656;23.232;2022-10-19T11:29:24;2.67;;;1.93;;
61344;SDS011;47216;42.656;23.232;2022-10-19T11:32:03;5.53;;;2.00;;
61344;SDS011;47216;42.656;23.232;2022-10-19T11:34:46;3.70;;;1.90;;
61344;SDS011;47216;42.656;23.232;2022-10-19T11:37:23;4.20;;;2.10;;
61344;SDS011;47216;42.656;23.232;2022-10-19T11:40:04;4.40;;;1.70;;
61344;SDS011;47216;42.656;23.232;2022-10-19T11:42:43;2.70;;;1.90;;
61344;SDS011;47216;42.656;23.232;2022-10-19T11:45:20;2.87;;;1.80;;
61344;SDS011;47216;42.656;23.232;2022-10-19T11:48:00;6.17;;;4.10;;
61344;SDS011;47216;42.656;23.232;2022-10-19T11:50:43;5.20;;;2.60;;
61344;SDS011;47216;42.656;23.232;2022-10-19T11:53:17;2.80;;;2.00;;
61344;SDS011;47216;42.656;23.232;2022-10-19T11:55:55;2.73;;;1.93;;
61344;SDS011;47216;42.656;23.232;2022-10-19T11:58:43;3.43;;;2.00;;
61344;SDS011;47216;42.656;23.232;2022-10-19T12:01:24;5.10;;;2.27;;
61344;SDS011;47216;42.656;23.232;2022-10-19T12:04:18;2.77;;;1.83;;
61344;SDS011;47216;42.656;23.232;2022-10-19T12:07:00;8.33;;;2.20;;
61344;SDS011;47216;42.656;23.232;2022-10-19T12:09:42;6.07;;;1.90;;
61344;SDS011;47216;42.656;23.232;2022-10-19T12:12:22;6.63;;;2.20;;
61344;SDS011;47216;42.656;23.232;2022-10-19T12:14:56;2.90;;;2.10;;
61344;SDS011;47216;42.656;23.232;2022-10-19T12:17:29;11.10;;;1.90;;
61344;SDS011;47216;42.656;23.232;2022-10-19T12:20:02;2.53;;;2.00;;
61344;SDS011;47216;42.656;23.232;2022-10-19T12:22:41;3.30;;;1.80;;
61344;SDS011;47216;42.656;23.232;2022-10-19T12:25:11;4.30;;;1.77;;
61344;SDS011;47216;42.656;23.232;2022-10-19T12:27:41;2.67;;;2.20;;
61344;SDS011;47216;42.656;23.232;2022-10-19T12:30:12;3.80;;;2.07;;
61344;SDS011;47216;42.656;23.232;2022-10-19T12:32:43;6.47;;;2.30;;
61344;SDS011;47216;42.656;23.232;2022-10-19T12:35:24;3.93;;;1.93;;
61344;SDS011;47216;42.656;23.232;2022-10-19T12:38:05;5.43;;;2.20;;
61344;SDS011;47216;42.656;23.232;2022-10-19T12:40:38;4.07;;;2.23;;
61344;SDS011;47216;42.656;23.232;2022-10-19T12:43:14;5.17;;;2.27;;
61344;SDS011;47216;42.656;23.232;2022-10-19T12:45:46;3.13;;;2.40;;
61344;SDS011;47216;42.656;23.232;2022-10-19T12:48:21;4.47;;;2.40;;
61344;SDS011;47216;42.656;23.232;2022-10-19T12:51:03;3.10;;;2.37;;
61344;SDS011;47216;42.656;23.232;2022-10-19T12:53:32;2.53;;;2.17;;
61344;SDS011;47216;42.656;23.232;2022-10-19T12:56:03;4.57;;;2.17;;
61344;SDS011;47216;42.656;23.232;2022-10-19T12:58:34;3.50;;;2.50;;
61344;SDS011;47216;42.656;23.232;2022-10-19T13:01:05;6.80;;;2.60;;
61344;SDS011;47216;42.656;23.232;2022-10-19T13:03:33;4.67;;;2.30;;
61344;SDS011;47216;42.656;23.232;2022-10-19T13:06:06;3.93;;;2.50;;
61344;SDS011;47216;42.656;23.232;2022-10-19T13:08:38;4.83;;;2.37;;
61344;SDS011;47216;42.656;23.232;2022-10-19T13:11:09;3.60;;;2.50;;
61344;SDS011;47216;42.656;23.232;2022-10-19T13:13:59;49.33;;;20.00;;
61344;SDS011;47216;42.656;23.232;2022-10-19T13:16:38;8.27;;;4.60;;
61344;SDS011;47216;42.656;23.232;2022-10-19T13:19:26;6.73;;;3.30;;
61344;SDS011;47216;42.656;23.232;2022-10-19T13:22:01;6.10;;;2.73;;
61344;SDS011;47216;42.656;23.232;2022-10-19T13:27:48;7.37;;;3.73;;
61344;SDS011;47216;42.656;23.232;2022-10-19T13:36:10;5.47;;;3.20;;
61344;SDS011;47216;42.656;23.232;2022-10-19T13:38:37;7.93;;;4.57;;
61344;SDS011;47216;42.656;23.232;2022-10-19T13:41:14;6.70;;;5.50;;
61344;SDS011;47216;42.656;23.232;2022-10-19T13:49:30;8.13;;;3.97;;
61344;SDS011;47216;42.656;23.232;2022-10-19T13:52:30;13.23;;;5.30;;
61344;SDS011;47216;42.656;23.232;2022-10-19T13:55:16;6.97;;;4.33;;
61344;SDS011;47216;42.656;23.232;2022-10-19T13:58:04;6.97;;;2.97;;
61344;SDS011;47216;42.656;23.232;2022-10-19T14:00:53;6.67;;;3.90;;
61344;SDS011;47216;42.656;23.232;2022-10-19T14:03:35;4.53;;;3.40;;
61344;SDS011;47216;42.656;23.232;2022-10-19T14:06:23;10.33;;;3.10;;
61344;SDS011;47216;42.656;23.232;2022-10-19T14:11:49;5.10;;;2.70;;
61344;SDS011;47216;42.656;23.232;2022-10-19T14:14:19;7.77;;;4.10;;
61344;SDS011;47216;42.656;23.232;2022-10-19T14:16:50;5.80;;;3.27;;
61344;SDS011;47216;42.656;23.232;2022-10-19T14:19:25;5.97;;;3.20;;
61344;SDS011;47216;42.656;23.232;2022-10-19T14:21:56;5.43;;;3.60;;
61344;SDS011;47216;42.656;23.232;2022-10-19T14:24:28;10.57;;;4.73;;
61344;SDS011;47216;42.656;23.232;2022-10-19T14:26:58;13.83;;;4.87;;
61344;SDS011;47216;42.656;23.232;2022-10-19T14:29:26;7.13;;;3.67;;
61344;SDS011;47216;42.656;23.232;2022-10-19T14:31:53;6.20;;;3.83;;
61344;SDS011;47216;42.656;23.232;2022-10-19T14:34:20;16.97;;;5.70;;
61344;SDS011;47216;42.656;23.232;2022-10-19T14:36:47;7.87;;;4.03;;
61344;SDS011;47216;42.656;23.232;2022-10-19T14:39:25;7.60;;;4.47;;
61344;SDS011;47216;42.656;23.232;2022-10-19T14:41:55;16.60;;;8.50;;
61344;SDS011;47216;42.656;23.232;2022-10-19T14:44:31;16.37;;;6.10;;
61344;SDS011;47216;42.656;23.232;2022-10-19T14:47:05;5.70;;;4.50;;
61344;SDS011;47216;42.656;23.232;2022-10-19T14:49:41;22.07;;;12.80;;
61344;SDS011;47216;42.656;23.232;2022-10-19T14:52:07;9.00;;;4.80;;
61344;SDS011;47216;42.656;23.232;2022-10-19T14:54:39;8.10;;;4.40;;
61344;SDS011;47216;42.656;23.232;2022-10-19T14:57:11;6.70;;;4.70;;
61344;SDS011;47216;42.656;23.232;2022-10-19T14:59:42;8.10;;;4.27;;
61344;SDS011;47216;42.656;23.232;2022-10-19T15:02:13;8.87;;;5.07;;
61344;SDS011;47216;42.656;23.232;2022-10-19T15:04:44;8.30;;;4.50;;
61344;SDS011;47216;42.656;23.232;2022-10-19T15:07:15;9.77;;;4.53;;
61344;SDS011;47216;42.656;23.232;2022-10-19T15:09:49;6.03;;;3.43;;
61344;SDS011;47216;42.656;23.232;2022-10-19T15:12:20;5.87;;;3.70;;
61344;SDS011;47216;42.656;23.232;2022-10-19T15:14:52;4.50;;;3.50;;
61344;SDS011;47216;42.656;23.232;2022-10-19T15:17:20;6.00;;;3.33;;
61344;SDS011;47216;42.656;23.232;2022-10-19T15:19:49;9.83;;;3.77;;
61344;SDS011;47216;42.656;23.232;2022-10-19T15:22:18;6.63;;;3.50;;